Time;durP1;ratioP1;P1;durP2;ratioP2;P2;SDS_P1;SDS_P2;PMS_P1;PMS_P2;Temp;Humidity;BMP_temperature;BMP_pressure;BME280_temperature;BME280_humidity;BME280_pressure;Samples;Min_cycle;Max_cycle;Signal;HPM_P1;HPM_P2
2021/03/24 00:00:14;;;;;;;1.77;1.50;;;1.40;98.00;;;;;;5065650;28;20458;-64
2021/03/24 00:02:40;;;;;;;2.80;2.60;;;1.40;98.00;;;;;;5052392;28;20592;-65
2021/03/24 00:05:12;;;;;;;2.53;1.50;;;1.30;98.00;;;;;;5050827;28;20462;-64
2021/03/24 00:07:42;;;;;;;2.67;1.43;;;1.30;98.00;;;;;;5052520;28;20970;-65
2021/03/24 00:10:11;;;;;;;2.23;1.73;;;1.30;98.00;;;;;;5050552;28;20809;-64
2021/03/24 00:12:39;;;;;;;1.20;1.00;;;1.10;98.00;;;;;;5052463;28;20460;-64
2021/03/24 00:15:08;;;;;;;1.70;1.10;;;1.10;98.00;;;;;;5050265;28;20459;-64
2021/03/24 00:17:36;;;;;;;1.97;1.50;;;1.10;98.00;;;;;;5052432;28;20517;-65
2021/03/24 00:20:05;;;;;;;3.40;1.90;;;1.20;98.00;;;;;;5050221;28;20468;-64
2021/03/24 00:22:33;;;;;;;2.13;1.90;;;1.20;98.00;;;;;;5052273;28;20835;-64
2021/03/24 00:24:59;;;;;;;1.20;1.10;;;1.20;98.00;;;;;;5050305;28;20461;-64
2021/03/24 00:27:26;;;;;;;1.40;1.30;;;1.20;98.00;;;;;;5052310;28;20460;-64
2021/03/24 00:29:52;;;;;;;1.20;1.13;;;1.30;98.00;;;;;;5048821;28;20517;-65
2021/03/24 00:32:22;;;;;;;1.70;1.37;;;1.40;98.00;;;;;;5052110;28;20543;-65
2021/03/24 00:34:48;;;;;;;1.20;1.00;;;1.50;98.00;;;;;;5049938;28;20454;-64
2021/03/24 00:37:15;;;;;;;1.30;1.30;;;1.40;98.00;;;;;;5051974;28;20546;-64
2021/03/24 00:39:43;;;;;;;1.20;1.00;;;1.10;98.00;;;;;;5049549;28;20519;-64
2021/03/24 00:42:10;;;;;;;1.37;1.33;;;1.00;98.00;;;;;;5051561;28;20946;-64
2021/03/24 00:44:36;;;;;;;1.20;1.00;;;0.90;98.00;;;;;;5049486;28;20494;-64
2021/03/24 00:47:05;;;;;;;1.77;1.30;;;0.90;98.00;;;;;;5067398;28;20488;-65
2021/03/24 00:49:31;;;;;;;3.50;1.70;;;0.80;98.00;;;;;;5049590;28;20491;-64
2021/03/24 00:52:00;;;;;;;1.70;1.43;;;0.80;98.00;;;;;;5051915;28;20911;-64
2021/03/24 00:54:26;;;;;;;3.30;2.20;;;0.80;98.00;;;;;;5064703;28;20530;-64
2021/03/24 00:56:58;;;;;;;1.30;1.23;;;0.70;98.00;;;;;;5051779;28;20457;-64
2021/03/24 00:59:24;;;;;;;2.47;1.20;;;0.80;98.00;;;;;;5049311;28;20850;-64
2021/03/24 01:01:51;;;;;;;1.20;1.10;;;1.00;98.00;;;;;;5051475;28;20467;-65
2021/03/24 01:04:18;;;;;;;2.40;1.20;;;0.90;98.00;;;;;;5064490;28;20481;-64
2021/03/24 01:06:45;;;;;;;1.20;1.10;;;0.90;98.00;;;;;;5051451;28;20466;-64
2021/03/24 01:09:13;;;;;;;1.20;1.10;;;1.00;98.00;;;;;;5049298;28;20460;-65
2021/03/24 01:11:41;;;;;;;1.40;1.40;;;1.10;98.00;;;;;;5066390;28;20500;-64
2021/03/24 01:14:10;;;;;;;6.10;2.20;;;0.90;98.00;;;;;;5049171;28;20450;-65
2021/03/24 01:16:37;;;;;;;1.77;1.50;;;0.90;98.00;;;;;;5051211;28;20510;-64
2021/03/24 01:19:04;;;;;;;1.50;1.30;;;0.90;98.00;;;;;;5064586;28;20522;-65
2021/03/24 01:21:31;;;;;;;1.83;1.53;;;0.80;98.00;;;;;;5051328;28;20469;-64
2021/03/24 01:23:57;;;;;;;1.27;1.20;;;0.90;98.00;;;;;;5048853;28;20895;-66
2021/03/24 01:26:24;;;;;;;1.50;1.30;;;0.90;98.00;;;;;;5051342;28;20954;-65
2021/03/24 01:28:57;;;;;;;1.20;1.00;;;0.80;98.00;;;;;;5051296;28;20975;-64
2021/03/24 01:31:27;;;;;;;1.23;1.10;;;0.80;98.00;;;;;;5051073;28;20475;-64
2021/03/24 01:33:53;;;;;;;2.80;1.57;;;0.70;98.00;;;;;;5051107;28;20457;-64
2021/03/24 01:36:22;;;;;;;1.80;1.50;;;0.80;98.00;;;;;;5049288;28;20628;-64
2021/03/24 01:38:50;;;;;;;2.30;1.83;;;0.70;98.00;;;;;;5051038;28;20455;-64
2021/03/24 01:41:17;;;;;;;1.20;1.10;;;0.70;98.00;;;;;;5048710;28;20455;-65
2021/03/24 01:43:44;;;;;;;2.17;1.23;;;0.60;98.00;;;;;;5050647;28;20499;-64
2021/03/24 01:46:37;;;;;;;1.67;1.33;;;0.60;98.00;;;;;;5048709;28;20473;-64
2021/03/24 01:49:11;;;;;;;1.20;1.10;;;0.60;98.00;;;;;;5047356;28;20848;-65
2021/03/24 01:51:43;;;;;;;1.30;1.20;;;0.70;98.00;;;;;;5050486;28;20481;-64
2021/03/24 01:54:13;;;;;;;2.60;2.40;;;0.80;98.00;;;;;;5047946;28;20949;-65
2021/03/24 01:56:42;;;;;;;1.20;0.93;;;0.90;98.00;;;;;;5050878;28;20878;-64
2021/03/24 01:59:10;;;;;;;2.43;1.57;;;0.90;98.00;;;;;;5048669;28;20871;-64
2021/03/24 02:01:37;;;;;;;1.30;1.10;;;0.90;98.00;;;;;;5050556;28;20518;-64
2021/03/24 02:04:04;;;;;;;1.20;1.00;;;0.80;98.00;;;;;;5048490;28;20491;-65
2021/03/24 02:06:40;;;;;;;2.00;1.90;;;0.80;98.00;;;;;;5050740;28;20461;-64
2021/03/24 02:09:13;;;;;;;1.20;0.90;;;0.80;98.00;;;;;;5063604;28;20765;-65
2021/03/24 02:11:46;;;;;;;1.20;1.10;;;0.80;98.00;;;;;;5050510;28;20460;-64
2021/03/24 02:14:16;;;;;;;3.00;1.73;;;0.70;98.00;;;;;;5048424;28;20457;-64
2021/03/24 02:16:48;;;;;;;1.20;1.10;;;0.50;98.00;;;;;;5050462;28;20456;-64
2021/03/24 02:19:46;;;;;;;1.30;1.23;;;0.50;98.00;;;;;;5048036;28;20495;-64
2021/03/24 02:22:16;;;;;;;1.20;1.00;;;0.50;98.00;;;;;;5048551;28;21032;-64
2021/03/24 02:24:51;;;;;;;1.70;1.30;;;0.60;98.00;;;;;;5048188;28;20528;-64
2021/03/24 02:27:22;;;;;;;2.27;1.50;;;0.60;98.00;;;;;;5050364;28;20453;-64
2021/03/24 02:29:52;;;;;;;6.70;2.50;;;0.50;98.00;;;;;;5063245;28;20484;-64
2021/03/24 02:32:23;;;;;;;1.87;1.33;;;0.30;98.00;;;;;;5050228;28;20513;-64
2021/03/24 02:34:52;;;;;;;3.20;1.90;;;0.20;98.00;;;;;;5048197;28;21049;-64
2021/03/24 02:37:20;;;;;;;4.93;1.53;;;0.10;98.00;;;;;;5050290;28;20463;-64
2021/03/24 02:39:48;;;;;;;1.30;1.30;;;0.20;98.00;;;;;;5048238;28;20466;-64
2021/03/24 02:42:16;;;;;;;1.50;1.33;;;0.20;98.00;;;;;;5050134;28;20976;-64
2021/03/24 02:44:46;;;;;;;2.07;1.30;;;0.30;98.00;;;;;;5047754;28;20554;-64
2021/03/24 02:47:14;;;;;;;2.03;1.73;;;0.50;98.00;;;;;;5050065;28;20456;-64
2021/03/24 02:49:42;;;;;;;4.07;1.93;;;0.60;98.00;;;;;;5047946;28;20456;-64
2021/03/24 02:52:11;;;;;;;1.20;1.20;;;0.50;98.00;;;;;;5050170;28;20456;-64
2021/03/24 02:54:45;;;;;;;1.23;1.13;;;0.30;98.00;;;;;;5047831;28;20512;-64
2021/03/24 02:57:11;;;;;;;2.30;1.33;;;0.20;98.00;;;;;;5048915;28;21003;-64
2021/03/24 02:59:39;;;;;;;1.50;1.27;;;0.20;98.00;;;;;;5047862;28;20463;-64
2021/03/24 03:02:13;;;;;;;1.50;1.30;;;0.20;98.00;;;;;;5048945;28;20544;-64
2021/03/24 03:04:44;;;;;;;1.30;1.10;;;0.30;98.00;;;;;;5047728;28;20554;-64
2021/03/24 03:07:17;;;;;;;3.20;2.23;;;0.40;98.00;;;;;;5053076;28;20491;-64
2021/03/24 03:09:52;;;;;;;1.20;1.10;;;0.30;98.00;;;;;;5051719;28;20491;-64
2021/03/24 03:12:29;;;;;;;1.20;0.90;;;0.20;98.00;;;;;;5068251;28;20903;-64
2021/03/24 03:15:00;;;;;;;1.80;1.77;;;0.00;98.00;;;;;;5051714;28;20480;-64
2021/03/24 03:17:34;;;;;;;4.07;2.33;;;0.10;98.00;;;;;;5053483;28;20483;-64
2021/03/24 03:20:07;;;;;;;2.03;1.90;;;0.10;98.00;;;;;;5051365;28;20493;-64
2021/03/24 03:22:37;;;;;;;1.20;1.00;;;0.00;98.00;;;;;;5068448;28;20499;-64
2021/03/24 03:25:12;;;;;;;1.50;1.33;;;0.00;98.00;;;;;;5051204;28;20850;-64
2021/03/24 03:27:40;;;;;;;1.20;1.00;;;0.00;98.00;;;;;;5053433;28;20749;-64
2021/03/24 03:30:11;;;;;;;1.20;1.00;;;0.00;98.00;;;;;;5050973;28;20456;-64
2021/03/24 03:32:39;;;;;;;2.43;1.83;;;0.00;98.00;;;;;;5053225;28;20458;-64
2021/03/24 03:35:11;;;;;;;1.50;1.50;;;-0.10;98.00;;;;;;5050904;28;20474;-64
2021/03/24 03:37:38;;;;;;;1.20;1.20;;;-0.10;98.00;;;;;;5052988;28;20471;-64
2021/03/24 03:40:10;;;;;;;1.50;1.30;;;-0.20;98.00;;;;;;5051136;28;20755;-64
2021/03/24 03:42:38;;;;;;;1.20;1.10;;;-0.20;98.00;;;;;;5053146;28;20466;-64
2021/03/24 03:45:07;;;;;;;1.67;1.60;;;-0.10;98.00;;;;;;5050709;28;20590;-64
2021/03/24 03:47:34;;;;;;;1.43;1.20;;;0.00;98.00;;;;;;5067774;28;20487;-64
2021/03/24 03:50:01;;;;;;;1.30;1.17;;;0.20;98.00;;;;;;5066273;28;20459;-64
2021/03/24 03:52:39;;;;;;;2.83;1.70;;;0.30;98.00;;;;;;5068066;28;20507;-64
2021/03/24 03:55:19;;;;;;;1.23;1.23;;;0.20;98.00;;;;;;5050726;28;20477;-64
2021/03/24 03:57:52;;;;;;;1.20;1.20;;;0.10;98.00;;;;;;5052731;28;20497;-64
2021/03/24 04:00:23;;;;;;;1.20;1.20;;;-0.10;98.00;;;;;;5050674;28;20507;-66
2021/03/24 04:02:55;;;;;;;1.50;1.23;;;0.00;98.00;;;;;;5052641;28;20467;-66
2021/03/24 04:05:26;;;;;;;1.63;1.43;;;0.10;98.00;;;;;;5050541;28;20460;-66
2021/03/24 04:07:57;;;;;;;2.40;1.93;;;0.10;98.00;;;;;;5052410;28;20634;-66
2021/03/24 04:10:26;;;;;;;1.73;1.70;;;0.20;98.00;;;;;;5050329;28;20512;-66
2021/03/24 04:12:55;;;;;;;1.70;1.53;;;0.00;98.00;;;;;;5052519;28;20485;-66
2021/03/24 04:15:24;;;;;;;2.13;1.33;;;-0.10;98.00;;;;;;5050168;28;20516;-66
2021/03/24 04:17:55;;;;;;;2.43;1.43;;;-0.30;98.00;;;;;;5051702;28;20454;-66
2021/03/24 04:20:25;;;;;;;1.20;1.05;;;-0.40;98.00;;;;;;5065169;28;20459;-66
2021/03/24 04:22:56;;;;;;;1.83;1.40;;;-0.40;98.00;;;;;;5052357;28;20265;-66
2021/03/24 04:25:25;;;;;;;1.20;1.10;;;-0.40;98.00;;;;;;5050374;28;20460;-66
2021/03/24 04:27:55;;;;;;;1.47;1.37;;;-0.30;98.00;;;;;;5052454;28;20491;-66
2021/03/24 04:30:27;;;;;;;1.40;1.37;;;-0.30;98.00;;;;;;5050140;28;20520;-66
2021/03/24 04:32:54;;;;;;;2.90;2.17;;;-0.40;98.00;;;;;;5052115;28;20492;-66
2021/03/24 04:35:23;;;;;;;1.97;1.70;;;-0.50;98.00;;;;;;5050143;28;20463;-64
2021/03/24 04:37:54;;;;;;;1.60;1.20;;;-0.30;98.00;;;;;;5052105;28;20456;-66
2021/03/24 04:40:28;;;;;;;1.52;1.50;;;-0.20;98.00;;;;;;5049890;28;20295;-66
2021/03/24 04:42:59;;;;;;;1.40;1.30;;;-0.10;98.00;;;;;;5052008;28;20211;-66
2021/03/24 04:45:38;;;;;;;1.60;1.50;;;-0.20;98.00;;;;;;5050056;28;20496;-66
2021/03/24 04:48:13;;;;;;;5.63;2.43;;;-0.30;98.00;;;;;;5067063;28;20463;-66
2021/03/24 04:50:45;;;;;;;1.67;1.60;;;-0.30;98.00;;;;;;5048447;28;20460;-66
2021/03/24 04:53:17;;;;;;;1.30;1.30;;;-0.30;98.00;;;;;;5052507;28;20531;-66
2021/03/24 04:55:44;;;;;;;1.40;1.30;;;-0.20;98.00;;;;;;5050320;28;20459;-66
2021/03/24 04:58:28;;;;;;;7.00;2.30;;;-0.20;98.00;;;;;;5052547;28;20488;-66
2021/03/24 05:01:00;;;;;;;2.33;1.97;;;-0.40;98.00;;;;;;5050022;28;20460;-66
2021/03/24 05:03:34;;;;;;;1.30;1.20;;;-0.30;98.00;;;;;;5051494;28;20482;-66
2021/03/24 05:06:05;;;;;;;1.30;1.20;;;-0.40;98.00;;;;;;5049684;28;20462;-66
2021/03/24 05:08:37;;;;;;;1.17;1.00;;;-0.40;98.00;;;;;;5051572;28;20955;-66
2021/03/24 05:11:10;;;;;;;1.20;1.00;;;-0.40;98.00;;;;;;5049377;28;20465;-66
2021/03/24 05:13:43;;;;;;;3.45;1.75;;;-0.50;98.00;;;;;;5051218;28;20519;-66
2021/03/24 05:16:18;;;;;;;1.30;1.17;;;-0.60;98.00;;;;;;5049157;28;20310;-66
2021/03/24 05:18:51;;;;;;;1.77;1.25;;;-0.70;98.00;;;;;;5051482;28;20461;-66
2021/03/24 05:21:26;;;;;;;1.47;1.23;;;-0.60;98.00;;;;;;5049215;28;20634;-66
2021/03/24 05:23:58;;;;;;;1.93;1.40;;;-0.40;98.00;;;;;;5051440;28;20490;-66
2021/03/24 05:26:30;;;;;;;1.30;1.30;;;-0.40;98.00;;;;;;5049515;28;20455;-66
2021/03/24 05:29:00;;;;;;;1.40;1.30;;;-0.30;98.00;;;;;;5050622;28;20467;-66
2021/03/24 05:31:34;;;;;;;1.80;1.40;;;-0.30;98.00;;;;;;5049043;28;20993;-66
2021/03/24 05:34:04;;;;;;;1.30;1.17;;;-0.50;98.00;;;;;;5050954;28;20491;-66
2021/03/24 05:36:35;;;;;;;1.20;0.93;;;-0.60;98.00;;;;;;5048707;28;20503;-66
2021/03/24 05:39:12;;;;;;;1.20;1.00;;;-0.50;98.00;;;;;;5051102;28;20455;-66
2021/03/24 05:41:45;;;;;;;1.67;1.57;;;-0.40;98.00;;;;;;5048625;28;20469;-66
2021/03/24 05:44:25;;;;;;;4.40;1.53;;;-0.30;98.00;;;;;;5050652;28;20498;-66
2021/03/24 05:47:24;;;;;;;1.53;1.53;;;-0.20;98.00;;;;;;5050585;28;20831;-66
2021/03/24 05:50:01;;;;;;;1.40;1.30;;;-0.30;98.00;;;;;;5048702;28;20514;-66
2021/03/24 05:52:43;;;;;;;1.20;1.07;;;-0.50;98.00;;;;;;5050854;28;20459;-66
2021/03/24 05:55:33;;;;;;;1.20;1.00;;;-0.60;98.00;;;;;;5047394;28;20491;-66
2021/03/24 05:58:10;;;;;;;1.95;1.60;;;-0.80;98.00;;;;;;5050678;28;20525;-66
2021/03/24 06:00:42;;;;;;;1.20;1.00;;;-0.80;98.00;;;;;;5063904;28;20250;-66
2021/03/24 06:03:25;;;;;;;2.35;2.15;;;-0.60;98.00;;;;;;5050645;28;20213;-66
2021/03/24 06:06:21;;;;;;;1.40;1.40;;;-0.50;98.00;;;;;;5048744;28;20294;-66
2021/03/24 06:09:18;;;;;;;1.77;1.50;;;-0.20;98.00;;;;;;5050774;28;20468;-66
2021/03/24 06:12:00;;;;;;;1.20;1.00;;;0.00;98.00;;;;;;5048408;28;20479;-66
2021/03/24 06:14:55;;;;;;;1.77;1.67;;;0.00;98.00;;;;;;5048633;28;20498;-67
2021/03/24 06:17:53;;;;;;;1.80;1.67;;;0.00;98.00;;;;;;5050421;28;20501;-66
2021/03/24 06:20:34;;;;;;;3.20;2.03;;;-0.10;98.00;;;;;;5041771;28;20456;-66
2021/03/24 06:23:42;;;;;;;1.57;1.53;;;-0.20;98.00;;;;;;5050295;28;20459;-68
2021/03/24 06:26:23;;;;;;;1.30;1.10;;;-0.30;98.00;;;;;;5041640;28;20481;-68
2021/03/24 06:28:59;;;;;;;1.30;1.20;;;-0.30;98.00;;;;;;5048947;28;20474;-68
2021/03/24 06:32:12;;;;;;;1.47;1.20;;;-0.20;98.00;;;;;;5048418;28;20622;-67
2021/03/24 06:35:05;;;;;;;2.40;1.50;;;0.00;98.00;;;;;;5048427;28;20466;-67
2021/03/24 06:37:55;;;;;;;1.20;1.00;;;0.10;98.00;;;;;;5048463;28;20954;-67
2021/03/24 06:40:41;;;;;;;2.73;2.07;;;0.30;98.00;;;;;;5039728;28;20466;-67
2021/03/24 06:43:39;;;;;;;1.57;1.47;;;0.30;98.00;;;;;;5054185;28;20461;-68
2021/03/24 06:46:29;;;;;;;2.23;1.87;;;0.40;98.00;;;;;;5044953;28;20473;-67
2021/03/24 06:49:25;;;;;;;6.60;3.83;;;0.30;98.00;;;;;;5052257;28;20465;-66
2021/03/24 06:52:37;;;;;;;1.97;1.60;;;0.40;98.00;;;;;;5050515;28;20466;-66
2021/03/24 06:55:40;;;;;;;1.60;1.50;;;0.50;98.00;;;;;;5051627;28;20459;-66
2021/03/24 06:58:37;;;;;;;1.63;1.33;;;0.40;98.00;;;;;;5031023;28;20450;-66
2021/03/24 07:01:31;;;;;;;1.67;1.30;;;0.30;98.00;;;;;;5051901;28;20483;-65
2021/03/24 07:04:17;;;;;;;1.93;1.50;;;0.20;98.00;;;;;;5053701;28;20486;-67
2021/03/24 07:06:55;;;;;;;1.70;1.47;;;0.30;98.00;;;;;;5065598;28;20464;-66
2021/03/24 07:09:39;;;;;;;1.30;1.20;;;0.50;98.00;;;;;;5053612;28;20491;-66
2021/03/24 07:12:14;;;;;;;1.87;1.30;;;0.70;98.00;;;;;;5053716;28;20459;-66
2021/03/24 07:15:23;;;;;;;2.33;1.73;;;0.90;98.00;;;;;;5051159;28;20463;-64
2021/03/24 07:18:25;;;;;;;1.30;1.23;;;1.00;98.00;;;;;;5033160;28;20452;-64
2021/03/24 07:21:35;;;;;;;1.80;1.43;;;1.10;98.00;;;;;;5051385;28;20457;-64
2021/03/24 07:24:34;;;;;;;2.83;1.93;;;1.10;98.00;;;;;;5053557;28;20488;-65
2021/03/24 07:27:20;;;;;;;4.20;2.17;;;1.10;98.00;;;;;;5053679;28;20462;-64
2021/03/24 07:30:01;;;;;;;4.17;2.23;;;1.10;98.00;;;;;;5051187;28;20514;-64
2021/03/24 07:32:42;;;;;;;2.70;1.80;;;1.30;98.00;;;;;;5052184;28;20517;-64
2021/03/24 07:35:33;;;;;;;2.17;1.60;;;1.60;98.00;;;;;;5050397;28;20456;-64
2021/03/24 07:38:28;;;;;;;3.00;2.07;;;1.90;98.00;;;;;;5067652;28;20472;-66
2021/03/24 07:41:25;;;;;;;1.60;1.40;;;2.10;98.00;;;;;;5050641;28;20460;-66
2021/03/24 07:44:06;;;;;;;1.87;1.77;;;2.10;98.00;;;;;;5052456;28;20492;-64
2021/03/24 07:47:08;;;;;;;2.33;1.97;;;2.30;98.00;;;;;;5050233;28;20518;-66
2021/03/24 07:50:00;;;;;;;2.90;1.97;;;2.50;98.00;;;;;;5041741;28;20463;-67
2021/03/24 07:52:45;;;;;;;2.77;2.47;;;2.60;98.00;;;;;;5051246;28;20827;-66
2021/03/24 07:55:22;;;;;;;2.90;1.80;;;2.80;98.00;;;;;;5050120;28;20547;-64
2021/03/24 07:57:57;;;;;;;3.40;1.77;;;2.90;98.00;;;;;;5067183;28;20514;-64
2021/03/24 08:00:30;;;;;;;1.30;1.10;;;3.20;98.00;;;;;;5065347;28;20465;-65
2021/03/24 08:03:00;;;;;;;2.47;1.70;;;3.40;98.00;;;;;;5052055;28;20491;-65
2021/03/24 08:06:05;;;;;;;1.77;1.77;;;3.60;98.00;;;;;;5049925;28;20803;-64
2021/03/24 08:08:58;;;;;;;1.77;1.40;;;3.80;98.00;;;;;;5052337;28;20457;-63
2021/03/24 08:11:32;;;;;;;2.60;2.03;;;4.00;98.00;;;;;;5040701;28;20535;-64
2021/03/24 08:14:18;;;;;;;3.80;2.83;;;4.20;98.00;;;;;;5066764;28;20485;-64
2021/03/24 08:16:59;;;;;;;1.50;1.50;;;4.40;98.00;;;;;;5049959;28;20660;-64
2021/03/24 08:19:56;;;;;;;1.30;1.23;;;4.60;98.00;;;;;;5051870;28;20908;-65
2021/03/24 08:22:58;;;;;;;1.47;1.27;;;4.70;98.00;;;;;;5051466;28;20465;-65
2021/03/24 08:25:39;;;;;;;1.50;1.40;;;4.90;98.00;;;;;;5049385;28;20544;-63
2021/03/24 08:28:13;;;;;;;1.20;1.10;;;5.10;98.00;;;;;;5051901;28;20878;-63
2021/03/24 08:30:50;;;;;;;2.97;2.77;;;5.10;98.00;;;;;;5049586;28;20488;-66
2021/03/24 08:33:40;;;;;;;1.30;1.23;;;5.20;98.00;;;;;;5051354;28;20541;-65
2021/03/24 08:36:38;;;;;;;1.30;1.10;;;5.30;98.00;;;;;;5049726;28;21047;-64
2021/03/24 08:39:34;;;;;;;1.30;1.30;;;5.40;98.00;;;;;;5051886;28;20461;-66
2021/03/24 08:42:35;;;;;;;2.27;2.07;;;5.60;98.00;;;;;;5031998;28;20494;-65
2021/03/24 08:45:14;;;;;;;1.60;1.50;;;5.80;98.00;;;;;;5049047;28;20523;-66
2021/03/24 08:47:42;;;;;;;4.50;2.17;;;6.00;98.00;;;;;;5051396;28;20495;-65
2021/03/24 08:50:17;;;;;;;1.70;1.50;;;6.20;98.00;;;;;;5064505;28;20464;-65
2021/03/24 08:52:53;;;;;;;5.47;2.37;;;6.30;98.00;;;;;;5050283;28;20810;-66
2021/03/24 08:55:34;;;;;;;2.50;1.23;;;6.50;98.00;;;;;;5048811;28;20464;-66
2021/03/24 08:58:17;;;;;;;1.63;1.27;;;6.60;98.00;;;;;;5051383;28;20470;-66
2021/03/24 09:01:38;;;;;;;3.30;2.83;;;7.00;98.00;;;;;;5049194;28;20461;-67
2021/03/24 09:04:34;;;;;;;1.50;1.27;;;7.30;98.00;;;;;;5050818;28;20489;-66
2021/03/24 09:07:12;;;;;;;1.67;1.30;;;7.60;98.00;;;;;;5048795;28;20875;-66
2021/03/24 09:09:55;;;;;;;1.80;1.57;;;7.70;98.00;;;;;;5051060;28;20468;-66
2021/03/24 09:12:27;;;;;;;4.17;2.30;;;7.90;98.00;;;;;;5050829;28;20507;-66
2021/03/24 09:15:01;;;;;;;2.37;2.13;;;8.10;98.00;;;;;;5048791;28;20453;-67
2021/03/24 09:18:07;;;;;;;2.53;1.80;;;8.30;98.00;;;;;;5050863;28;20491;-66
2021/03/24 09:21:04;;;;;;;1.70;1.57;;;8.60;98.00;;;;;;5038069;28;20459;-66
2021/03/24 09:24:14;;;;;;;1.80;1.70;;;8.80;97.80;;;;;;5051084;28;20489;-66
2021/03/24 09:27:14;;;;;;;2.13;1.90;;;9.00;96.30;;;;;;5047960;28;20456;-66
2021/03/24 09:29:50;;;;;;;5.27;2.90;;;9.10;96.50;;;;;;5050754;28;20468;-66
2021/03/24 09:32:30;;;;;;;4.13;2.37;;;9.30;96.10;;;;;;5051021;28;20457;-66
2021/03/24 09:35:10;;;;;;;1.30;1.20;;;9.50;95.90;;;;;;5048795;28;20467;-66
2021/03/24 09:37:39;;;;;;;3.77;2.33;;;9.70;95.10;;;;;;5051090;28;20519;-66
2021/03/24 09:40:11;;;;;;;3.30;1.80;;;9.80;94.60;;;;;;5048920;28;20465;-66
2021/03/24 09:42:45;;;;;;;6.57;3.37;;;10.00;93.90;;;;;;5066051;28;20460;-67
2021/03/24 09:45:19;;;;;;;2.20;2.03;;;10.20;92.40;;;;;;5048927;28;20486;-67
2021/03/24 09:47:52;;;;;;;2.10;1.97;;;10.60;91.70;;;;;;5050867;28;20454;-67
2021/03/24 09:50:33;;;;;;;3.77;1.70;;;10.70;91.50;;;;;;5048940;28;20457;-67
2021/03/24 09:53:04;;;;;;;2.57;2.23;;;10.90;91.40;;;;;;5050966;28;20493;-68
2021/03/24 09:55:36;;;;;;;2.33;1.60;;;11.00;90.10;;;;;;5048877;28;20472;-67
2021/03/24 09:58:38;;;;;;;2.57;1.80;;;11.20;90.70;;;;;;5050860;28;20458;-67
2021/03/24 10:01:28;;;;;;;1.87;1.53;;;11.30;89.00;;;;;;5035800;28;21056;-67
2021/03/24 10:04:08;;;;;;;1.33;1.30;;;11.50;89.40;;;;;;5050965;28;20579;-68
2021/03/24 10:06:48;;;;;;;2.20;1.70;;;11.80;87.60;;;;;;5048962;28;20464;-67
2021/03/24 10:09:21;;;;;;;1.83;1.50;;;11.90;87.30;;;;;;5065045;28;20461;-67
2021/03/24 10:11:54;;;;;;;2.00;1.83;;;12.20;88.30;;;;;;5063660;28;20461;-66
2021/03/24 10:14:32;;;;;;;1.90;1.30;;;12.40;86.60;;;;;;5050628;28;20523;-66
2021/03/24 10:17:01;;;;;;;3.27;1.90;;;12.50;85.80;;;;;;5055013;28;20970;-67
2021/03/24 10:19:33;;;;;;;2.40;2.10;;;12.50;85.50;;;;;;5057093;28;20470;-65
2021/03/24 10:22:07;;;;;;;2.03;1.83;;;12.60;84.60;;;;;;5054987;28;20832;-65
2021/03/24 10:24:41;;;;;;;2.33;1.97;;;12.80;84.50;;;;;;5056980;28;20584;-66
2021/03/24 10:27:10;;;;;;;2.17;1.83;;;12.90;84.10;;;;;;5055740;28;20459;-65
2021/03/24 10:29:43;;;;;;;9.70;2.40;;;13.20;84.50;;;;;;5057701;28;20458;-66
2021/03/24 10:32:22;;;;;;;3.10;1.97;;;13.40;82.30;;;;;;5056034;28;21017;-65
2021/03/24 10:34:57;;;;;;;1.30;1.30;;;13.50;81.90;;;;;;5056689;28;20458;-66
2021/03/24 10:37:33;;;;;;;2.73;1.70;;;13.60;80.10;;;;;;5057096;28;20468;-66
2021/03/24 10:40:05;;;;;;;1.70;1.10;;;13.60;79.70;;;;;;5069663;28;20485;-66
2021/03/24 10:42:38;;;;;;;5.20;2.53;;;13.50;80.00;;;;;;5055832;28;20454;-68
2021/03/24 10:45:18;;;;;;;1.20;1.10;;;13.70;82.00;;;;;;5054010;28;20490;-67
2021/03/24 10:47:51;;;;;;;1.60;1.40;;;13.80;80.30;;;;;;5056484;28;20525;-67
2021/03/24 10:50:36;;;;;;;4.83;2.10;;;13.80;81.00;;;;;;5054557;28;20544;-67
2021/03/24 10:53:09;;;;;;;2.67;1.93;;;14.00;81.00;;;;;;5056514;28;20949;-67
2021/03/24 10:55:38;;;;;;;1.90;1.80;;;14.20;79.60;;;;;;5054308;28;20456;-67
2021/03/24 10:58:38;;;;;;;2.57;2.23;;;14.40;78.10;;;;;;5056609;28;20564;-67
2021/03/24 11:01:10;;;;;;;1.30;1.20;;;14.50;79.30;;;;;;5052739;28;20462;-67
2021/03/24 11:03:51;;;;;;;4.60;2.17;;;14.70;78.60;;;;;;5056343;28;21080;-67
2021/03/24 11:06:21;;;;;;;2.10;1.73;;;14.70;78.60;;;;;;5054340;28;20974;-67
2021/03/24 11:09:00;;;;;;;1.80;1.53;;;15.00;77.70;;;;;;5056569;28;20459;-67
2021/03/24 11:11:30;;;;;;;1.93;1.60;;;15.10;76.30;;;;;;5054401;28;20461;-67
2021/03/24 11:14:05;;;;;;;1.87;1.17;;;15.20;76.20;;;;;;5056503;28;20456;-67
2021/03/24 11:16:38;;;;;;;1.77;1.67;;;15.40;76.10;;;;;;5069367;28;20460;-67
2021/03/24 11:19:19;;;;;;;1.50;1.40;;;15.60;76.10;;;;;;5071577;28;20455;-67
2021/03/24 11:22:13;;;;;;;1.50;1.40;;;15.50;75.40;;;;;;5052937;28;20465;-67
2021/03/24 11:24:49;;;;;;;1.77;1.67;;;15.80;75.70;;;;;;5052516;28;20553;-67
2021/03/24 11:27:20;;;;;;;1.30;1.20;;;16.20;75.40;;;;;;5052704;28;20461;-68
2021/03/24 11:29:56;;;;;;;3.93;2.03;;;16.50;73.70;;;;;;5053271;28;20595;-68
2021/03/24 11:32:30;;;;;;;1.87;1.83;;;16.60;73.70;;;;;;5052165;28;20461;-67
2021/03/24 11:35:04;;;;;;;1.50;1.40;;;16.70;73.90;;;;;;5051572;28;20490;-67
2021/03/24 11:37:42;;;;;;;1.50;1.37;;;16.90;72.80;;;;;;5053317;28;20816;-67
2021/03/24 11:40:26;;;;;;;1.23;1.20;;;16.90;72.00;;;;;;5051167;28;20449;-67
2021/03/24 11:42:56;;;;;;;2.90;1.73;;;16.80;71.60;;;;;;5051983;28;20968;-67
2021/03/24 11:45:25;;;;;;;1.60;1.57;;;17.10;71.60;;;;;;5050348;28;20485;-67
2021/03/24 11:48:23;;;;;;;1.77;1.60;;;17.10;72.20;;;;;;5052710;28;20512;-68
2021/03/24 11:51:04;;;;;;;1.43;1.40;;;17.30;70.50;;;;;;5050525;28;21040;-67
2021/03/24 11:53:46;;;;;;;2.10;1.43;;;17.10;71.10;;;;;;5052657;28;20451;-67
2021/03/24 11:56:22;;;;;;;3.00;1.87;;;17.10;70.90;;;;;;5050335;28;20464;-68
2021/03/24 11:59:03;;;;;;;1.70;1.57;;;17.10;71.40;;;;;;5067326;28;20464;-67
2021/03/24 12:01:52;;;;;;;1.83;1.53;;;17.10;72.40;;;;;;5050389;28;20488;-67
2021/03/24 12:04:43;;;;;;;1.93;1.33;;;17.30;71.60;;;;;;5052224;28;20510;-67
2021/03/24 12:07:21;;;;;;;2.47;1.60;;;17.20;70.50;;;;;;5050324;28;20973;-67
2021/03/24 12:10:00;;;;;;;2.53;1.80;;;17.20;71.10;;;;;;5052171;28;20478;-67
2021/03/24 12:12:28;;;;;;;2.90;1.53;;;17.20;70.20;;;;;;5052474;28;20467;-67
2021/03/24 12:15:04;;;;;;;2.00;1.60;;;17.00;71.20;;;;;;5052412;28;20452;-67
2021/03/24 12:17:35;;;;;;;2.47;1.50;;;16.90;72.10;;;;;;5052613;28;20490;-67
2021/03/24 12:20:08;;;;;;;2.30;1.50;;;16.40;71.20;;;;;;5051142;28;20498;-68
2021/03/24 12:22:36;;;;;;;1.63;1.50;;;16.10;72.60;;;;;;5052409;28;20498;-67
2021/03/24 12:25:18;;;;;;;2.03;1.73;;;16.20;73.20;;;;;;5050713;28;20487;-69
2021/03/24 12:27:48;;;;;;;1.70;1.50;;;16.30;73.30;;;;;;5051897;28;20460;-67
2021/03/24 12:30:26;;;;;;;1.77;1.60;;;16.50;73.10;;;;;;5049862;28;20465;-68
2021/03/24 12:33:04;;;;;;;2.17;1.73;;;16.50;72.20;;;;;;5052136;28;20468;-67
2021/03/24 12:35:31;;;;;;;1.77;1.33;;;16.40;71.40;;;;;;5049540;28;20958;-67
2021/03/24 12:38:02;;;;;;;2.90;1.40;;;16.40;72.20;;;;;;5051333;28;20491;-68
2021/03/24 12:40:30;;;;;;;1.53;1.50;;;16.40;72.10;;;;;;5049788;28;20513;-68
2021/03/24 12:43:07;;;;;;;2.93;2.33;;;16.40;72.10;;;;;;5052155;28;20964;-67
2021/03/24 12:45:39;;;;;;;2.07;1.97;;;16.40;72.10;;;;;;5049410;28;20490;-67
2021/03/24 12:48:12;;;;;;;1.97;1.30;;;16.20;71.80;;;;;;5051904;28;20866;-67
2021/03/24 12:50:49;;;;;;;2.27;1.60;;;15.90;72.30;;;;;;5049964;28;20463;-67
2021/03/24 12:53:41;;;;;;;1.57;1.30;;;16.00;73.00;;;;;;5066661;28;20467;-67
2021/03/24 12:56:40;;;;;;;2.40;1.80;;;16.30;71.50;;;;;;5048516;28;20855;-67
2021/03/24 12:59:21;;;;;;;1.77;1.47;;;16.60;71.20;;;;;;5052181;28;20549;-69
2021/03/24 13:01:56;;;;;;;1.90;1.57;;;17.00;70.90;;;;;;5049773;28;20948;-67
2021/03/24 13:04:50;;;;;;;1.80;1.40;;;17.30;69.00;;;;;;5051632;28;20485;-68
2021/03/24 13:07:39;;;;;;;3.10;1.60;;;17.30;69.00;;;;;;5049939;28;20461;-68
2021/03/24 13:10:33;;;;;;;1.80;1.50;;;17.40;68.30;;;;;;5048838;28;20804;-68
2021/03/24 13:13:12;;;;;;;2.77;1.57;;;17.60;68.80;;;;;;5046139;28;20520;-68
2021/03/24 13:15:48;;;;;;;2.07;1.80;;;17.90;68.10;;;;;;5049032;28;20469;-68
2021/03/24 13:18:21;;;;;;;1.57;1.47;;;17.80;67.00;;;;;;5051358;28;20467;-68
2021/03/24 13:21:23;;;;;;;1.30;1.30;;;17.90;67.50;;;;;;5048538;28;20464;-67
2021/03/24 13:23:57;;;;;;;1.47;1.37;;;18.00;66.40;;;;;;5051220;28;20463;-68
2021/03/24 13:26:30;;;;;;;1.93;1.83;;;17.80;65.80;;;;;;5049067;28;20453;-67
2021/03/24 13:29:02;;;;;;;2.27;1.80;;;17.80;66.80;;;;;;5051216;28;20518;-68
2021/03/24 13:31:36;;;;;;;2.43;1.63;;;18.20;67.30;;;;;;5049071;28;20551;-67
2021/03/24 13:34:17;;;;;;;2.63;1.53;;;18.40;66.60;;;;;;5051205;28;20472;-68
2021/03/24 13:36:49;;;;;;;1.30;1.30;;;18.60;65.10;;;;;;5049072;28;20826;-67
2021/03/24 13:39:18;;;;;;;2.23;1.70;;;18.50;65.20;;;;;;5051078;28;20469;-68
2021/03/24 13:41:48;;;;;;;1.70;1.47;;;18.70;64.70;;;;;;5049154;28;20467;-68
2021/03/24 13:44:25;;;;;;;2.90;1.70;;;18.90;63.40;;;;;;5051019;28;20581;-67